Proud — 9HWA9 — position and weather

sailwx.info

Track history (hours):
 
Tides and Currents Weather Stations Pressure Air Temp Water Temp Dewpoint Dewpoint Depression Visibility Wind Speed Wind Dir Waves Ship Positions

Proud

Last reported at 2014-Jul-01 05:30 UTC. Time now 2014-Jul-31 19:41 UTC.
Position N 30°58' E 123°01'.
Warning: this ship's position is 30 days out of date.

Length 292 m; draft 7.1 m.

Type: Cargo ship. MMSI: 249619000.

Date/timePositionNaut miles runAvg speedWind from/ knotsBaromVisibWave heightAir tempDewpointWater temp
2014-Jul-01 05:30N 30°58' E 123°01'1410.1
2014-Jul-01 04:07N 30°60' E 122°45'0 0.1
2014-Jul-01 02:14N 30°60' E 122°45'0 0.1
2014-Jul-01 01:32N 30°59' E 122°45'0 0.1
2014-Jul-01 00:14N 30°59' E 122°45'21 2.8
2014-Jun-30 16:30N 31°02' E 122°20'28 8.4
2014-Jun-30 13:06N 31°12' E 121°49'811.8
2014-Jun-30 12:27N 31°18' E 121°43'1011.5
2014-Jun-30 11:33N 31°24' E 121°33'1111.0
2014-Jun-30 10:33N 31°31' E 121°23'1412.8
2014-Jun-30 09:25N 31°41' E 121°11'1111.4
2014-Jun-30 08:26N 31°47' E 120°60'8 9.2
2014-Jun-30 07:33N 31°52' E 120°53'10 9.7
2014-Jun-30 06:33N 32°01' E 120°47'1111.2
2014-Jun-30 05:33N 32°03' E 120°34'8 7.9
2014-Jun-30 04:33N 32°02' E 120°25'0 0.0
2014-Jun-30 03:30N 32°02' E 120°25'0 0.0
2014-Jun-30 02:33N 32°02' E 120°25'0 0.0
2014-Jun-30 01:33N 32°02' E 120°25'0 0.0
2014-Jun-30 00:33N 32°02' E 120°25'0 0.0
2014-Jun-29 23:33N 32°02' E 120°25'0 0.0
2014-Jun-29 22:33N 32°02' E 120°25'0 0.0
2014-Jun-29 21:33N 32°02' E 120°25'0 0.0
2014-Jun-29 20:33N 32°02' E 120°25'0 0.0
2014-Jun-29 19:33N 32°02' E 120°25'0 0.0
2014-Jun-29 18:33N 32°02' E 120°25'0 0.0
2014-Jun-29 17:33N 32°02' E 120°25'0 0.0
2014-Jun-29 16:33N 32°02' E 120°25'0 0.0
2014-Jun-29 15:33N 32°02' E 120°25'0 0.0
2014-Jun-29 14:30N 32°02' E 120°25'0 0.0
2014-Jun-29 13:33N 32°02' E 120°25'0 0.0
2014-Jun-29 12:33N 32°02' E 120°25'0 0.0
2014-Jun-29 11:33N 32°02' E 120°25'0 0.2
2014-Jun-29 10:33N 32°03' E 120°25'0 0.0
2014-Jun-29 09:33N 32°03' E 120°25'0 0.0
2014-Jun-29 08:33N 32°03' E 120°25'0 0.0
2014-Jun-29 07:33N 32°03' E 120°25'0 0.0
2014-Jun-29 06:33N 32°03' E 120°25'0 0.0
2014-Jun-29 05:33N 32°03' E 120°25'0 0.0
2014-Jun-29 04:33N 32°03' E 120°25'0 0.0
2014-Jun-29 03:30N 32°03' E 120°25'0 0.0
2014-Jun-29 02:33N 32°03' E 120°25'0 0.0
2014-Jun-29 01:33N 32°03' E 120°25'0 0.0
2014-Jun-29 00:30N 32°03' E 120°25'0 0.0
2014-Jun-28 23:30N 32°03' E 120°25'0 0.0
2014-Jun-28 22:33N 32°03' E 120°25'0 0.0
2014-Jun-28 21:33N 32°03' E 120°25'0 0.0
2014-Jun-28 20:33N 32°03' E 120°25'0 0.0
2014-Jun-28 19:33N 32°03' E 120°25'0 0.0
2014-Jun-28 18:33N 32°03' E 120°25'0 0.0
2014-Jun-28 17:30N 32°03' E 120°25'0 0.0
2014-Jun-28 16:32N 32°03' E 120°25'0 0.0
2014-Jun-28 15:32N 32°03' E 120°25'0 0.0
2014-Jun-28 14:32N 32°03' E 120°25'0 0.0
2014-Jun-28 13:32N 32°03' E 120°25'0 0.0
2014-Jun-28 12:32N 32°03' E 120°25'0 0.0
2014-Jun-28 11:32N 32°03' E 120°25'0 0.0
2014-Jun-28 10:32N 32°03' E 120°25'0 0.0
2014-Jun-28 09:32N 32°03' E 120°25'0 0.0
2014-Jun-28 08:32N 32°03' E 120°25'0 0.0
2014-Jun-28 07:32N 32°03' E 120°25'0 0.0
2014-Jun-28 06:32N 32°03' E 120°25'0 0.0
2014-Jun-28 05:29N 32°03' E 120°25'0 0.0
2014-Jun-28 04:32N 32°03' E 120°25'0 0.0
2014-Jun-28 03:32N 32°03' E 120°25'0 0.0
2014-Jun-28 02:32N 32°03' E 120°25'0 0.0
2014-Jun-28 01:32N 32°03' E 120°25'0 0.0
2014-Jun-28 00:32N 32°03' E 120°25'0 0.0
2014-Jun-27 23:32N 32°03' E 120°25'0 0.0
2014-Jun-27 22:32N 32°03' E 120°25'0 0.0
2014-Jun-27 21:32N 32°03' E 120°25'0 0.0
2014-Jun-27 20:32N 32°03' E 120°25'0 0.0
2014-Jun-27 19:32N 32°03' E 120°25'0 0.0
2014-Jun-27 18:32N 32°03' E 120°25'0 0.0
2014-Jun-27 17:32N 32°03' E 120°25'0 0.0
2014-Jun-27 16:32N 32°03' E 120°25'0 0.0
2014-Jun-27 15:32N 32°03' E 120°25'0 0.0
2014-Jun-27 14:32N 32°03' E 120°25'0 0.0
2014-Jun-27 13:32N 32°03' E 120°25'0 0.0
2014-Jun-27 12:32N 32°03' E 120°25'0 0.0
2014-Jun-27 11:29N 32°03' E 120°25'0 0.0
2014-Jun-27 10:32N 32°03' E 120°25'0 0.0
2014-Jun-27 09:32N 32°03' E 120°25'0 0.0
2014-Jun-27 08:32N 32°03' E 120°25'0 0.0
2014-Jun-27 07:32N 32°03' E 120°25'0 0.0
2014-Jun-27 06:32N 32°03' E 120°25'0 0.0
2014-Jun-27 05:32N 32°03' E 120°25'0 0.0
2014-Jun-27 04:26N 32°03' E 120°25'0 0.0
2014-Jun-27 03:32N 32°03' E 120°25'0 0.0
2014-Jun-27 02:32N 32°03' E 120°25'0 0.0
2014-Jun-27 01:29N 32°03' E 120°25'0 0.0
2014-Jun-27 00:32N 32°03' E 120°25'0 0.0
2014-Jun-26 23:32N 32°03' E 120°25'0 0.0
2014-Jun-26 22:32N 32°03' E 120°25'0 0.0
2014-Jun-26 21:32N 32°03' E 120°25'0 0.0
2014-Jun-26 20:32N 32°03' E 120°25'0 0.0
2014-Jun-26 19:32N 32°03' E 120°25'0 0.0
2014-Jun-26 18:32N 32°03' E 120°25'0 0.0
2014-Jun-26 17:32N 32°03' E 120°25'0 0.0
2014-Jun-26 16:32N 32°03' E 120°25'0 0.0
2014-Jun-26 15:29N 32°03' E 120°25'0 0.0
2014-Jun-26 14:32N 32°03' E 120°25'0 0.0
2014-Jun-26 13:29N 32°03' E 120°25'0 0.0
2014-Jun-26 12:29N 32°03' E 120°25'0 0.0
2014-Jun-26 11:32N 32°03' E 120°25'0 0.0
2014-Jun-26 10:32N 32°03' E 120°25'0 0.0
2014-Jun-26 09:32N 32°03' E 120°25'0 0.0
2014-Jun-26 08:32N 32°03' E 120°25'0 0.0
2014-Jun-26 07:32N 32°03' E 120°25'0 0.0
2014-Jun-26 06:32N 32°03' E 120°25'0 0.0
2014-Jun-26 05:29N 32°03' E 120°25'0 0.0
2014-Jun-26 04:17N 32°03' E 120°25'0 0.0
2014-Jun-26 03:32N 32°03' E 120°25'0 0.0
2014-Jun-26 02:29N 32°03' E 120°25'0 0.0
2014-Jun-26 01:32N 32°03' E 120°25'0 0.0
2014-Jun-26 00:26N 32°03' E 120°25'0 0.0
2014-Jun-25 23:32N 32°03' E 120°25'0 0.0
2014-Jun-25 22:32N 32°03' E 120°25'0 0.0
2014-Jun-25 21:32N 32°03' E 120°25'0 0.0
2014-Jun-25 20:32N 32°03' E 120°25'0 0.0
2014-Jun-25 19:32N 32°03' E 120°25'0 0.0
2014-Jun-25 18:32N 32°03' E 120°25'0 0.0
2014-Jun-25 17:29N 32°03' E 120°25'0 0.0
2014-Jun-25 16:32N 32°03' E 120°25'0 0.0
2014-Jun-25 15:32N 32°03' E 120°25'0 0.0
2014-Jun-25 14:32N 32°03' E 120°25'0 0.0
2014-Jun-25 13:32N 32°03' E 120°25'0 0.0
2014-Jun-25 12:32N 32°03' E 120°25'0 0.0
2014-Jun-25 11:32N 32°03' E 120°25'0 0.0
2014-Jun-25 10:32N 32°03' E 120°25'0 0.0
2014-Jun-25 09:32N 32°03' E 120°25'0 0.0
2014-Jun-25 08:32N 32°03' E 120°25'0 0.0
2014-Jun-25 07:32N 32°03' E 120°25'0 0.0
2014-Jun-25 06:32N 32°03' E 120°25'0 0.0
2014-Jun-25 05:32N 32°03' E 120°25'0 0.0
2014-Jun-25 04:29N 32°03' E 120°25'0 0.0
2014-Jun-25 03:29N 32°03' E 120°25'0 0.0
2014-Jun-25 02:29N 32°03' E 120°25'0 0.0
2014-Jun-25 01:32N 32°03' E 120°25'0 0.0
2014-Jun-25 00:32N 32°03' E 120°25'0 0.0
2014-Jun-24 23:32N 32°03' E 120°25'0 0.0
2014-Jun-24 22:32N 32°03' E 120°25'0 0.0
2014-Jun-24 21:32N 32°03' E 120°25'0 0.0
2014-Jun-24 20:32N 32°03' E 120°25'0 0.0
2014-Jun-24 19:32N 32°03' E 120°25'0 0.0
2014-Jun-24 18:29N 32°03' E 120°25'0 0.0
2014-Jun-24 17:32N 32°03' E 120°25'0 0.0
2014-Jun-24 16:32N 32°03' E 120°25'0 0.0
2014-Jun-24 15:32N 32°03' E 120°25'0 0.0
2014-Jun-24 14:32N 32°03' E 120°25'0 0.0
2014-Jun-24 13:29N 32°03' E 120°25'0 0.0
2014-Jun-24 12:32N 32°03' E 120°25'0 0.0
2014-Jun-24 11:32N 32°03' E 120°25'0 0.0
2014-Jun-24 10:32N 32°03' E 120°25'0 0.0
2014-Jun-24 09:32N 32°03' E 120°25'0 0.0
2014-Jun-24 08:32N 32°03' E 120°25'0 0.0
2014-Jun-24 07:32N 32°03' E 120°25'0 0.0
2014-Jun-24 06:32N 32°03' E 120°25'0 0.0
2014-Jun-24 05:32N 32°03' E 120°25'0 0.0
2014-Jun-24 04:29N 32°03' E 120°25'0 0.0
2014-Jun-24 03:32N 32°03' E 120°25'0 0.0
2014-Jun-24 02:32N 32°03' E 120°25'0 0.0
2014-Jun-24 01:32N 32°03' E 120°25'0 0.0
2014-Jun-24 00:32N 32°03' E 120°25'0 0.0
2014-Jun-23 23:32N 32°03' E 120°25'0 0.0
2014-Jun-23 22:32N 32°03' E 120°25'0 0.0
2014-Jun-23 21:32N 32°03' E 120°25'0 0.0
2014-Jun-23 20:32N 32°03' E 120°25'0 0.0
2014-Jun-23 19:32N 32°03' E 120°25'0 0.0
2014-Jun-23 18:32N 32°03' E 120°25'0 0.0
2014-Jun-23 17:32N 32°03' E 120°25'0 0.0
2014-Jun-23 16:32N 32°03' E 120°25'0 0.0
2014-Jun-23 15:32N 32°03' E 120°25'0 0.0
2014-Jun-23 14:32N 32°03' E 120°25'0 0.0
2014-Jun-23 12:32N 32°03' E 120°25'0 0.0
2014-Jun-23 11:32N 32°03' E 120°25'0 0.0
2014-Jun-23 10:32N 32°03' E 120°25'0 0.0
2014-Jun-23 09:32N 32°03' E 120°25'0 0.0
2014-Jun-23 08:32N 32°03' E 120°25'0 0.0
2014-Jun-23 07:29N 32°03' E 120°25'0 0.0
2014-Jun-23 06:32N 32°03' E 120°25'0 0.0
2014-Jun-23 05:32N 32°03' E 120°25'0 0.0
2014-Jun-23 04:32N 32°03' E 120°25'0 0.0
2014-Jun-23 03:29N 32°03' E 120°25'0 0.0
2014-Jun-23 02:32N 32°03' E 120°25'0 0.0
2014-Jun-23 01:32N 32°03' E 120°25'0 0.0
2014-Jun-23 00:32N 32°03' E 120°25'0 0.0
2014-Jun-22 23:32N 32°03' E 120°25'0 0.0
2014-Jun-22 22:32N 32°03' E 120°25'0 0.0
2014-Jun-22 21:29N 32°03' E 120°25'0 0.0
2014-Jun-22 20:32N 32°03' E 120°25'0 0.0
2014-Jun-22 19:32N 32°03' E 120°25'0 0.0
2014-Jun-22 18:20N 32°03' E 120°25'0 0.0
2014-Jun-22 17:32N 32°03' E 120°25'0 0.0
2014-Jun-22 16:32N 32°03' E 120°25'0 0.0
2014-Jun-22 15:32N 32°03' E 120°25'0 0.0
2014-Jun-22 14:29N 32°03' E 120°25'0 0.0
2014-Jun-22 13:32N 32°03' E 120°25'0 0.0
2014-Jun-22 12:32N 32°03' E 120°25'0 0.0
2014-Jun-22 11:32N 32°03' E 120°25'0 0.0
2014-Jun-22 10:32N 32°03' E 120°25'0 0.0
2014-Jun-22 09:32N 32°03' E 120°25'0 0.0
2014-Jun-22 08:26N 32°03' E 120°25'0 0.0
2014-Jun-22 07:32N 32°03' E 120°25'0 0.0
2014-Jun-22 06:32N 32°03' E 120°25'0 0.0
2014-Jun-22 05:32N 32°03' E 120°25'0 0.0
2014-Jun-22 04:32N 32°03' E 120°25'0 0.0
2014-Jun-22 03:32N 32°03' E 120°25'0 0.0
2014-Jun-22 02:29N 32°03' E 120°25'0 0.0
2014-Jun-22 01:32N 32°03' E 120°25'0 0.0
2014-Jun-22 00:32N 32°03' E 120°25'0 0.0
2014-Jun-21 23:32N 32°03' E 120°25'0 0.0
2014-Jun-21 21:32N 32°03' E 120°25'0 0.0
2014-Jun-21 20:32N 32°03' E 120°25'0 0.0
2014-Jun-21 19:32N 32°03' E 120°25'0 0.0
2014-Jun-21 18:32N 32°03' E 120°25'0 0.0
2014-Jun-21 17:29N 32°03' E 120°25'0 0.0
2014-Jun-21 16:32N 32°03' E 120°25'0 0.0
2014-Jun-21 15:32N 32°03' E 120°25'0 0.0
2014-Jun-21 14:32N 32°03' E 120°25'0 0.0
2014-Jun-21 13:32N 32°03' E 120°25'0 0.0
2014-Jun-21 12:32N 32°03' E 120°25'0 0.0
2014-Jun-21 11:32N 32°03' E 120°25'0 0.0
2014-Jun-21 10:26N 32°03' E 120°25'0 0.0
2014-Jun-21 09:23N 32°03' E 120°25'0 0.0
2014-Jun-21 08:32N 32°03' E 120°25'0 0.0
2014-Jun-21 07:29N 32°03' E 120°25'0 0.0
2014-Jun-21 06:32N 32°03' E 120°25'0 0.0
2014-Jun-21 05:32N 32°03' E 120°25'  
Track history (hours):
 
Tides and Currents Weather Stations Pressure Air Temp Water Temp Dewpoint Dewpoint Depression Visibility Wind Speed Wind Dir Waves Ship Positions

Proud

Last reported at 2014-Jul-01 05:30 UTC. Time now 2014-Jul-31 19:41 UTC.
Position N 30°58' E 123°01'.
Warning: this ship's position is 30 days out of date.

Length 292 m; draft 7.1 m.

Type: Cargo ship. MMSI: 249619000.

Date/timePositionNaut miles runAvg speedWind from/ knotsBaromVisibWave heightAir tempDewpointWater temp
2014-Jul-01 05:30N 30°58' E 123°01'1410.1
2014-Jul-01 04:07N 30°60' E 122°45'0 0.1
2014-Jul-01 02:14N 30°60' E 122°45'0 0.1
2014-Jul-01 01:32N 30°59' E 122°45'0 0.1
2014-Jul-01 00:14N 30°59' E 122°45'21 2.8
2014-Jun-30 16:30N 31°02' E 122°20'28 8.4
2014-Jun-30 13:06N 31°12' E 121°49'811.8
2014-Jun-30 12:27N 31°18' E 121°43'1011.5
2014-Jun-30 11:33N 31°24' E 121°33'1111.0
2014-Jun-30 10:33N 31°31' E 121°23'1412.8
2014-Jun-30 09:25N 31°41' E 121°11'1111.4
2014-Jun-30 08:26N 31°47' E 120°60'8 9.2
2014-Jun-30 07:33N 31°52' E 120°53'10 9.7
2014-Jun-30 06:33N 32°01' E 120°47'1111.2
2014-Jun-30 05:33N 32°03' E 120°34'8 7.9
2014-Jun-30 04:33N 32°02' E 120°25'0 0.0
2014-Jun-30 03:30N 32°02' E 120°25'0 0.0
2014-Jun-30 02:33N 32°02' E 120°25'0 0.0
2014-Jun-30 01:33N 32°02' E 120°25'0 0.0
2014-Jun-30 00:33N 32°02' E 120°25'0 0.0
2014-Jun-29 23:33N 32°02' E 120°25'0 0.0
2014-Jun-29 22:33N 32°02' E 120°25'0 0.0
2014-Jun-29 21:33N 32°02' E 120°25'0 0.0
2014-Jun-29 20:33N 32°02' E 120°25'0 0.0
2014-Jun-29 19:33N 32°02' E 120°25'0 0.0
2014-Jun-29 18:33N 32°02' E 120°25'0 0.0
2014-Jun-29 17:33N 32°02' E 120°25'0 0.0
2014-Jun-29 16:33N 32°02' E 120°25'0 0.0
2014-Jun-29 15:33N 32°02' E 120°25'0 0.0
2014-Jun-29 14:30N 32°02' E 120°25'0 0.0
2014-Jun-29 13:33N 32°02' E 120°25'0 0.0
2014-Jun-29 12:33N 32°02' E 120°25'0 0.0
2014-Jun-29 11:33N 32°02' E 120°25'0 0.2
2014-Jun-29 10:33N 32°03' E 120°25'0 0.0
2014-Jun-29 09:33N 32°03' E 120°25'0 0.0
2014-Jun-29 08:33N 32°03' E 120°25'0 0.0
2014-Jun-29 07:33N 32°03' E 120°25'0 0.0
2014-Jun-29 06:33N 32°03' E 120°25'0 0.0
2014-Jun-29 05:33N 32°03' E 120°25'0 0.0
2014-Jun-29 04:33N 32°03' E 120°25'0 0.0
2014-Jun-29 03:30N 32°03' E 120°25'0 0.0
2014-Jun-29 02:33N 32°03' E 120°25'0 0.0
2014-Jun-29 01:33N 32°03' E 120°25'0 0.0
2014-Jun-29 00:30N 32°03' E 120°25'0 0.0
2014-Jun-28 23:30N 32°03' E 120°25'0 0.0
2014-Jun-28 22:33N 32°03' E 120°25'0 0.0
2014-Jun-28 21:33N 32°03' E 120°25'0 0.0
2014-Jun-28 20:33N 32°03' E 120°25'0 0.0
2014-Jun-28 19:33N 32°03' E 120°25'0 0.0
2014-Jun-28 18:33N 32°03' E 120°25'0 0.0
2014-Jun-28 17:30N 32°03' E 120°25'0 0.0
2014-Jun-28 16:32N 32°03' E 120°25'0 0.0
2014-Jun-28 15:32N 32°03' E 120°25'0 0.0
2014-Jun-28 14:32N 32°03' E 120°25'0 0.0
2014-Jun-28 13:32N 32°03' E 120°25'0 0.0
2014-Jun-28 12:32N 32°03' E 120°25'0 0.0
2014-Jun-28 11:32N 32°03' E 120°25'0 0.0
2014-Jun-28 10:32N 32°03' E 120°25'0 0.0
2014-Jun-28 09:32N 32°03' E 120°25'0 0.0
2014-Jun-28 08:32N 32°03' E 120°25'0 0.0
2014-Jun-28 07:32N 32°03' E 120°25'0 0.0
2014-Jun-28 06:32N 32°03' E 120°25'0 0.0
2014-Jun-28 05:29N 32°03' E 120°25'0 0.0
2014-Jun-28 04:32N 32°03' E 120°25'0 0.0
2014-Jun-28 03:32N 32°03' E 120°25'0 0.0
2014-Jun-28 02:32N 32°03' E 120°25'0 0.0
2014-Jun-28 01:32N 32°03' E 120°25'0 0.0
2014-Jun-28 00:32N 32°03' E 120°25'0 0.0
2014-Jun-27 23:32N 32°03' E 120°25'0 0.0
2014-Jun-27 22:32N 32°03' E 120°25'0 0.0
2014-Jun-27 21:32N 32°03' E 120°25'0 0.0
2014-Jun-27 20:32N 32°03' E 120°25'0 0.0
2014-Jun-27 19:32N 32°03' E 120°25'0 0.0
2014-Jun-27 18:32N 32°03' E 120°25'0 0.0
2014-Jun-27 17:32N 32°03' E 120°25'0 0.0
2014-Jun-27 16:32N 32°03' E 120°25'0 0.0
2014-Jun-27 15:32N 32°03' E 120°25'0 0.0
2014-Jun-27 14:32N 32°03' E 120°25'0 0.0
2014-Jun-27 13:32N 32°03' E 120°25'0 0.0
2014-Jun-27 12:32N 32°03' E 120°25'0 0.0
2014-Jun-27 11:29N 32°03' E 120°25'0 0.0
2014-Jun-27 10:32N 32°03' E 120°25'0 0.0
2014-Jun-27 09:32N 32°03' E 120°25'0 0.0
2014-Jun-27 08:32N 32°03' E 120°25'0 0.0
2014-Jun-27 07:32N 32°03' E 120°25'0 0.0
2014-Jun-27 06:32N 32°03' E 120°25'0 0.0
2014-Jun-27 05:32N 32°03' E 120°25'0 0.0
2014-Jun-27 04:26N 32°03' E 120°25'0 0.0
2014-Jun-27 03:32N 32°03' E 120°25'0 0.0
2014-Jun-27 02:32N 32°03' E 120°25'0 0.0
2014-Jun-27 01:29N 32°03' E 120°25'0 0.0
2014-Jun-27 00:32N 32°03' E 120°25'0 0.0
2014-Jun-26 23:32N 32°03' E 120°25'0 0.0
2014-Jun-26 22:32N 32°03' E 120°25'0 0.0
2014-Jun-26 21:32N 32°03' E 120°25'0 0.0
2014-Jun-26 20:32N 32°03' E 120°25'0 0.0
2014-Jun-26 19:32N 32°03' E 120°25'0 0.0
2014-Jun-26 18:32N 32°03' E 120°25'0 0.0
2014-Jun-26 17:32N 32°03' E 120°25'0 0.0
2014-Jun-26 16:32N 32°03' E 120°25'0 0.0
2014-Jun-26 15:29N 32°03' E 120°25'0 0.0
2014-Jun-26 14:32N 32°03' E 120°25'0 0.0
2014-Jun-26 13:29N 32°03' E 120°25'0 0.0
2014-Jun-26 12:29N 32°03' E 120°25'0 0.0
2014-Jun-26 11:32N 32°03' E 120°25'0 0.0
2014-Jun-26 10:32N 32°03' E 120°25'0 0.0
2014-Jun-26 09:32N 32°03' E 120°25'0 0.0
2014-Jun-26 08:32N 32°03' E 120°25'0 0.0
2014-Jun-26 07:32N 32°03' E 120°25'0 0.0
2014-Jun-26 06:32N 32°03' E 120°25'0 0.0
2014-Jun-26 05:29N 32°03' E 120°25'0 0.0
2014-Jun-26 04:17N 32°03' E 120°25'0 0.0
2014-Jun-26 03:32N 32°03' E 120°25'0 0.0
2014-Jun-26 02:29N 32°03' E 120°25'0 0.0
2014-Jun-26 01:32N 32°03' E 120°25'0 0.0
2014-Jun-26 00:26N 32°03' E 120°25'0 0.0
2014-Jun-25 23:32N 32°03' E 120°25'0 0.0
2014-Jun-25 22:32N 32°03' E 120°25'0 0.0
2014-Jun-25 21:32N 32°03' E 120°25'0 0.0
2014-Jun-25 20:32N 32°03' E 120°25'0 0.0
2014-Jun-25 19:32N 32°03' E 120°25'0 0.0
2014-Jun-25 18:32N 32°03' E 120°25'0 0.0
2014-Jun-25 17:29N 32°03' E 120°25'0 0.0
2014-Jun-25 16:32N 32°03' E 120°25'0 0.0
2014-Jun-25 15:32N 32°03' E 120°25'0 0.0
2014-Jun-25 14:32N 32°03' E 120°25'0 0.0
2014-Jun-25 13:32N 32°03' E 120°25'0 0.0
2014-Jun-25 12:32N 32°03' E 120°25'0 0.0
2014-Jun-25 11:32N 32°03' E 120°25'0 0.0
2014-Jun-25 10:32N 32°03' E 120°25'0 0.0
2014-Jun-25 09:32N 32°03' E 120°25'0 0.0
2014-Jun-25 08:32N 32°03' E 120°25'0 0.0
2014-Jun-25 07:32N 32°03' E 120°25'0 0.0
2014-Jun-25 06:32N 32°03' E 120°25'0 0.0
2014-Jun-25 05:32N 32°03' E 120°25'0 0.0
2014-Jun-25 04:29N 32°03' E 120°25'0 0.0
2014-Jun-25 03:29N 32°03' E 120°25'0 0.0
2014-Jun-25 02:29N 32°03' E 120°25'0 0.0
2014-Jun-25 01:32N 32°03' E 120°25'0 0.0
2014-Jun-25 00:32N 32°03' E 120°25'0 0.0
2014-Jun-24 23:32N 32°03' E 120°25'0 0.0
2014-Jun-24 22:32N 32°03' E 120°25'0 0.0
2014-Jun-24 21:32N 32°03' E 120°25'0 0.0
2014-Jun-24 20:32N 32°03' E 120°25'0 0.0
2014-Jun-24 19:32N 32°03' E 120°25'0 0.0
2014-Jun-24 18:29N 32°03' E 120°25'0 0.0
2014-Jun-24 17:32N 32°03' E 120°25'0 0.0
2014-Jun-24 16:32N 32°03' E 120°25'0 0.0
2014-Jun-24 15:32N 32°03' E 120°25'0 0.0
2014-Jun-24 14:32N 32°03' E 120°25'0 0.0
2014-Jun-24 13:29N 32°03' E 120°25'0 0.0
2014-Jun-24 12:32N 32°03' E 120°25'0 0.0
2014-Jun-24 11:32N 32°03' E 120°25'0 0.0
2014-Jun-24 10:32N 32°03' E 120°25'0 0.0
2014-Jun-24 09:32N 32°03' E 120°25'0 0.0
2014-Jun-24 08:32N 32°03' E 120°25'0 0.0
2014-Jun-24 07:32N 32°03' E 120°25'0 0.0
2014-Jun-24 06:32N 32°03' E 120°25'0 0.0
2014-Jun-24 05:32N 32°03' E 120°25'0 0.0
2014-Jun-24 04:29N 32°03' E 120°25'0 0.0
2014-Jun-24 03:32N 32°03' E 120°25'0 0.0
2014-Jun-24 02:32N 32°03' E 120°25'0 0.0
2014-Jun-24 01:32N 32°03' E 120°25'0 0.0
2014-Jun-24 00:32N 32°03' E 120°25'0 0.0
2014-Jun-23 23:32N 32°03' E 120°25'0 0.0
2014-Jun-23 22:32N 32°03' E 120°25'0 0.0
2014-Jun-23 21:32N 32°03' E 120°25'0 0.0
2014-Jun-23 20:32N 32°03' E 120°25'0 0.0
2014-Jun-23 19:32N 32°03' E 120°25'0 0.0
2014-Jun-23 18:32N 32°03' E 120°25'0 0.0
2014-Jun-23 17:32N 32°03' E 120°25'0 0.0
2014-Jun-23 16:32N 32°03' E 120°25'0 0.0
2014-Jun-23 15:32N 32°03' E 120°25'0 0.0
2014-Jun-23 14:32N 32°03' E 120°25'0 0.0
2014-Jun-23 12:32N 32°03' E 120°25'0 0.0
2014-Jun-23 11:32N 32°03' E 120°25'0 0.0
2014-Jun-23 10:32N 32°03' E 120°25'0 0.0
2014-Jun-23 09:32N 32°03' E 120°25'0 0.0
2014-Jun-23 08:32N 32°03' E 120°25'0 0.0
2014-Jun-23 07:29N 32°03' E 120°25'0 0.0
2014-Jun-23 06:32N 32°03' E 120°25'0 0.0
2014-Jun-23 05:32N 32°03' E 120°25'0 0.0
2014-Jun-23 04:32N 32°03' E 120°25'0 0.0
2014-Jun-23 03:29N 32°03' E 120°25'0 0.0
2014-Jun-23 02:32N 32°03' E 120°25'0 0.0
2014-Jun-23 01:32N 32°03' E 120°25'0 0.0
2014-Jun-23 00:32N 32°03' E 120°25'0 0.0
2014-Jun-22 23:32N 32°03' E 120°25'0 0.0
2014-Jun-22 22:32N 32°03' E 120°25'0 0.0
2014-Jun-22 21:29N 32°03' E 120°25'0 0.0
2014-Jun-22 20:32N 32°03' E 120°25'0 0.0
2014-Jun-22 19:32N 32°03' E 120°25'0 0.0
2014-Jun-22 18:20N 32°03' E 120°25'0 0.0
2014-Jun-22 17:32N 32°03' E 120°25'0 0.0
2014-Jun-22 16:32N 32°03' E 120°25'0 0.0
2014-Jun-22 15:32N 32°03' E 120°25'0 0.0
2014-Jun-22 14:29N 32°03' E 120°25'0 0.0
2014-Jun-22 13:32N 32°03' E 120°25'0 0.0
2014-Jun-22 12:32N 32°03' E 120°25'0 0.0
2014-Jun-22 11:32N 32°03' E 120°25'0 0.0
2014-Jun-22 10:32N 32°03' E 120°25'0 0.0
2014-Jun-22 09:32N 32°03' E 120°25'0 0.0
2014-Jun-22 08:26N 32°03' E 120°25'0 0.0
2014-Jun-22 07:32N 32°03' E 120°25'0 0.0
2014-Jun-22 06:32N 32°03' E 120°25'0 0.0
2014-Jun-22 05:32N 32°03' E 120°25'0 0.0
2014-Jun-22 04:32N 32°03' E 120°25'0 0.0
2014-Jun-22 03:32N 32°03' E 120°25'0 0.0
2014-Jun-22 02:29N 32°03' E 120°25'0 0.0
2014-Jun-22 01:32N 32°03' E 120°25'0 0.0
2014-Jun-22 00:32N 32°03' E 120°25'0 0.0
2014-Jun-21 23:32N 32°03' E 120°25'0 0.0
2014-Jun-21 21:32N 32°03' E 120°25'0 0.0
2014-Jun-21 20:32N 32°03' E 120°25'0 0.0
2014-Jun-21 19:32N 32°03' E 120°25'0 0.0
2014-Jun-21 18:32N 32°03' E 120°25'0 0.0
2014-Jun-21 17:29N 32°03' E 120°25'0 0.0
2014-Jun-21 16:32N 32°03' E 120°25'0 0.0
2014-Jun-21 15:32N 32°03' E 120°25'0 0.0
2014-Jun-21 14:32N 32°03' E 120°25'0 0.0
2014-Jun-21 13:32N 32°03' E 120°25'0 0.0
2014-Jun-21 12:32N 32°03' E 120°25'0 0.0
2014-Jun-21 11:32N 32°03' E 120°25'0 0.0
2014-Jun-21 10:26N 32°03' E 120°25'0 0.0
2014-Jun-21 09:23N 32°03' E 120°25'0 0.0
2014-Jun-21 08:32N 32°03' E 120°25'0 0.0
2014-Jun-21 07:29N 32°03' E 120°25'0 0.0
2014-Jun-21 06:32N 32°03' E 120°25'0 0.0
2014-Jun-21 05:32N 32°03' E 120°25'  

Dump ship's entire track history